Carbon Hill, Illinois
Current Conditions -  °F | °C
As of 11:35 AM on Monday 22 Dec 2014 (Local Time) from KC09 Reporting Station
Light Rain Light Rain  
Wind Chill: 25°   Ceiling: 2100
Heat Index: 35°   Visibility: 2.5mi
Dew Point: 34°   Wind: 14mph
Humidity: 97%   Direction: 120°ESE
Pressure: 29.78"   Gusts: NA
Location:  41.2967°N, 88.2846°W
Report Text: KC09 221735Z AUTO 12012KT 2 1/2SM -RA SCT007 BKN021 OVC038 02/01 A2978 RMK AO2 T00150011
Loading
Personal Weather Stations






























Interactive Weather Map New forecast layout! Learn more

10-Day Weather Forecast

Advertisements
Track Severe Weather on mobile